createdAt,value
2019-02-05T00:02:01.711Z,5.16
2019-02-05T00:04:31.084Z,5.26
2019-02-05T00:07:00.485Z,5.35
2019-02-05T00:09:29.844Z,5.52
2019-02-05T00:11:59.209Z,5.61
2019-02-05T00:14:28.616Z,5.71
2019-02-05T00:16:57.992Z,5.77
2019-02-05T00:19:27.419Z,5.79
2019-02-05T00:21:56.780Z,5.88
2019-02-05T00:24:26.235Z,5.83
2019-02-05T00:26:55.623Z,5.86
2019-02-05T00:29:24.973Z,5.89
2019-02-05T00:31:54.345Z,5.94
2019-02-05T00:34:23.748Z,5.88
2019-02-05T00:36:53.166Z,5.95
2019-02-05T00:39:22.574Z,5.95
2019-02-05T00:41:52.010Z,5.93
2019-02-05T00:44:21.440Z,5.97
2019-02-05T00:46:50.855Z,5.92
2019-02-05T00:49:20.361Z,5.97
2019-02-05T00:51:49.976Z,6.01
2019-02-05T00:54:19.320Z,6.02
2019-02-05T00:56:49.010Z,6.01
2019-02-05T00:59:18.423Z,6.03
2019-02-05T01:01:47.803Z,6.14
2019-02-05T01:04:17.280Z,6.11
2019-02-05T01:06:46.695Z,6.16
2019-02-05T01:09:16.077Z,6.23
2019-02-05T01:11:45.958Z,6.25
2019-02-05T01:14:15.372Z,6.21
2019-02-05T01:16:44.733Z,6.08
2019-02-05T01:19:14.142Z,6.06
2019-02-05T01:21:43.567Z,6.07
2019-02-05T01:24:12.975Z,6.08
2019-02-05T01:26:42.658Z,5.99
2019-02-05T01:29:12.026Z,6.00
2019-02-05T01:31:41.510Z,6.08
2019-02-05T01:34:10.928Z,6.07
2019-02-05T01:36:40.334Z,6.08
2019-02-05T01:39:10.170Z,6.04
2019-02-05T01:41:39.547Z,5.99
2019-02-05T01:44:08.924Z,6.08
2019-02-05T01:46:38.286Z,6.06
2019-02-05T01:49:07.665Z,6.15
2019-02-05T01:51:37.062Z,6.06
2019-02-05T01:54:06.488Z,6.04
2019-02-05T01:56:40.773Z,6.04
2019-02-05T01:59:06.929Z,5.98
2019-02-05T02:01:36.329Z,6.04
2019-02-05T02:04:05.788Z,6.03
2019-02-05T02:06:35.182Z,6.06
2019-02-05T02:09:05.290Z,6.02
2019-02-05T02:11:34.646Z,6.04
2019-02-05T02:14:04.448Z,6.11
2019-02-05T02:16:33.838Z,6.11
2019-02-05T02:19:03.432Z,6.20
2019-02-05T02:21:32.822Z,6.15
2019-02-05T02:24:02.189Z,6.13
2019-02-05T02:26:31.570Z,6.23
2019-02-05T02:29:00.938Z,6.25
2019-02-05T02:31:30.335Z,6.25
2019-02-05T02:33:59.841Z,6.29
2019-02-05T02:36:29.233Z,6.22
2019-02-05T02:38:58.565Z,6.32
2019-02-05T02:41:27.945Z,6.34
2019-02-05T02:43:58.670Z,6.29
2019-02-05T02:46:28.069Z,6.17
2019-02-05T02:48:57.444Z,6.25
2019-02-05T02:51:26.871Z,6.26
2019-02-05T02:53:56.742Z,6.28
2019-02-05T02:56:26.140Z,6.32
2019-02-05T02:58:55.510Z,6.35
2019-02-05T03:01:24.927Z,6.31
2019-02-05T03:03:54.314Z,6.31
2019-02-05T03:06:23.711Z,6.26
2019-02-05T03:08:53.282Z,6.24
2019-02-05T03:11:22.663Z,6.10
2019-02-05T03:13:52.068Z,6.11
2019-02-05T03:16:21.507Z,6.14
2019-02-05T03:18:50.956Z,6.10
2019-02-05T03:21:20.394Z,6.08
2019-02-05T03:23:49.869Z,6.05
2019-02-05T03:26:20.788Z,6.01
2019-02-05T03:28:50.144Z,5.85
2019-02-05T03:31:19.534Z,6.09
2019-02-05T03:33:48.946Z,5.95
2019-02-05T03:36:18.297Z,5.94
2019-02-05T03:38:47.649Z,5.93
2019-02-05T03:41:17.007Z,5.96
2019-02-05T03:43:46.566Z,5.92
2019-02-05T03:46:17.868Z,5.89
2019-02-05T03:48:50.315Z,5.81
2019-02-05T03:51:57.273Z,5.89
2019-02-05T03:55:16.813Z,6.02
2019-02-05T03:58:25.138Z,5.91
2019-02-05T04:01:43.353Z,5.92
2019-02-05T04:05:08.955Z,5.83
2019-02-05T04:08:30.325Z,5.88
2019-02-05T04:11:41.356Z,5.75
2019-02-05T04:14:47.395Z,5.77
2019-02-05T04:17:53.344Z,5.82
2019-02-05T04:21:12.523Z,5.80
2019-02-05T04:24:11.687Z,5.90
2019-02-05T04:27:43.771Z,5.80
2019-02-05T04:30:25.936Z,5.67
2019-02-05T04:33:23.433Z,5.51
2019-02-05T04:36:44.047Z,5.49
2019-02-05T04:39:39.150Z,5.49
2019-02-05T04:42:53.069Z,5.51
2019-02-05T04:45:44.168Z,5.54
2019-02-05T04:49:03.026Z,5.50
2019-02-05T04:52:03.473Z,5.48
2019-02-05T04:54:54.077Z,5.25
2019-02-05T04:57:41.524Z,5.22
2019-02-05T05:00:37.917Z,5.23
2019-02-05T05:03:39.242Z,5.20
2019-02-05T05:06:37.724Z,5.27
2019-02-05T05:09:23.420Z,5.31
2019-02-05T05:11:52.887Z,5.25
2019-02-05T05:14:22.346Z,5.33
2019-02-05T05:16:51.930Z,5.34
2019-02-05T05:19:21.882Z,5.33
2019-02-05T05:21:51.695Z,5.30
2019-02-05T05:24:21.169Z,5.34
2019-02-05T05:26:51.084Z,5.25
2019-02-05T05:29:20.539Z,5.35
2019-02-05T05:31:52.072Z,5.37
2019-02-05T05:34:21.822Z,5.31
2019-02-05T05:36:50.399Z,5.35
2019-02-05T05:39:20.363Z,5.36
2019-02-05T05:41:49.818Z,5.27
2019-02-05T05:44:19.220Z,5.33
2019-02-05T05:46:48.666Z,5.33
2019-02-05T05:49:18.119Z,5.23
2019-02-05T05:51:47.544Z,5.29
2019-02-05T05:54:17.073Z,5.27
2019-02-05T05:56:49.274Z,5.36
2019-02-05T05:59:29.107Z,5.34
2019-02-05T06:02:04.080Z,5.27
2019-02-05T06:04:39.291Z,5.37
2019-02-05T06:07:19.587Z,5.35
2019-02-05T06:09:52.779Z,5.25
2019-02-05T06:12:23.257Z,5.18
2019-02-05T06:15:01.439Z,5.06
2019-02-05T06:17:34.314Z,4.97
2019-02-05T06:20:07.733Z,4.94
2019-02-05T06:22:47.143Z,4.89
2019-02-05T06:25:29.138Z,4.72
2019-02-05T06:28:15.289Z,4.85
2019-02-05T06:30:57.385Z,4.87
2019-02-05T06:33:33.819Z,4.98
2019-02-05T06:36:03.287Z,4.97
2019-02-05T06:38:32.673Z,5.01
2019-02-05T06:41:02.054Z,4.95
2019-02-05T06:43:31.444Z,5.02
2019-02-05T06:46:01.008Z,5.04
2019-02-05T06:48:30.704Z,4.96
2019-02-05T06:51:00.101Z,5.00
2019-02-05T06:53:30.453Z,4.98
2019-02-05T06:55:59.881Z,4.97
2019-02-05T06:58:29.370Z,5.06
2019-02-05T07:00:59.068Z,5.17
2019-02-05T07:03:30.261Z,5.22
2019-02-05T07:05:59.627Z,5.34
2019-02-05T07:08:29.063Z,5.36
2019-02-05T07:10:58.456Z,5.50
2019-02-05T07:13:27.867Z,5.38
2019-02-05T07:15:57.617Z,5.60
2019-02-05T07:18:27.056Z,5.54
2019-02-05T07:20:56.496Z,5.59
2019-02-05T07:23:25.906Z,5.69
2019-02-05T07:25:55.417Z,5.65
2019-02-05T07:28:24.801Z,5.78
2019-02-05T07:30:54.239Z,5.75
2019-02-05T07:33:23.667Z,5.83
2019-02-05T07:35:53.487Z,5.77
2019-02-05T07:38:22.932Z,5.87
2019-02-05T07:40:52.333Z,5.91
2019-02-05T07:43:21.684Z,5.87
2019-02-05T07:45:51.094Z,5.88
2019-02-05T07:48:21.472Z,5.86
2019-02-05T07:50:51.083Z,5.91
2019-02-05T07:53:20.464Z,5.76
2019-02-05T07:55:49.778Z,5.90
2019-02-05T07:58:19.204Z,5.95
2019-02-05T08:00:48.570Z,5.94
2019-02-05T08:03:17.992Z,6.05
2019-02-05T08:05:47.388Z,5.98
2019-02-05T08:08:16.806Z,6.04
2019-02-05T08:10:46.378Z,6.20
2019-02-05T08:13:16.000Z,6.18
2019-02-05T08:15:45.387Z,6.24
2019-02-05T08:18:14.774Z,6.24
2019-02-05T08:20:44.231Z,6.20
2019-02-05T08:23:14.001Z,6.13
2019-02-05T08:25:43.865Z,6.19
2019-02-05T08:28:13.324Z,6.16
2019-02-05T08:30:45.238Z,6.26
2019-02-05T08:33:14.720Z,6.32
2019-02-05T08:35:44.126Z,6.39
2019-02-05T08:38:13.765Z,6.47
2019-02-05T08:40:43.626Z,6.55
2019-02-05T08:43:13.105Z,6.55
2019-02-05T08:45:42.478Z,6.57
2019-02-05T08:48:12.717Z,6.52
2019-02-05T08:50:42.112Z,6.55
2019-02-05T08:53:11.949Z,6.68
2019-02-05T08:55:41.443Z,6.74
2019-02-05T08:58:12.065Z,6.74
2019-02-05T09:00:41.714Z,6.74
2019-02-05T09:03:11.567Z,6.47
2019-02-05T09:05:41.016Z,6.62
2019-02-05T09:08:10.656Z,6.67
2019-02-05T09:10:40.481Z,6.73
2019-02-05T09:13:10.247Z,6.81
2019-02-05T09:15:39.712Z,6.95
2019-02-05T09:18:09.437Z,6.95
2019-02-05T09:20:39.024Z,6.84
2019-02-05T09:23:08.554Z,6.96
2019-02-05T09:25:37.892Z,6.81
2019-02-05T09:28:07.307Z,6.89
2019-02-05T09:30:37.060Z,7.06
2019-02-05T09:33:09.618Z,7.11
2019-02-05T09:35:38.997Z,7.14
2019-02-05T09:38:08.351Z,7.20
2019-02-05T09:40:37.824Z,7.42
2019-02-05T09:43:07.395Z,7.39
2019-02-05T09:45:37.212Z,7.32
2019-02-05T09:48:06.660Z,7.52
2019-02-05T09:50:44.275Z,7.56
2019-02-05T09:53:07.176Z,7.64
2019-02-05T09:55:36.681Z,7.71
2019-02-05T09:58:08.179Z,7.89
2019-02-05T10:00:39.660Z,7.88
2019-02-05T10:03:09.520Z,7.92
2019-02-05T10:05:39.030Z,8.10
2019-02-05T10:08:08.547Z,8.22
2019-02-05T10:10:38.044Z,8.19
2019-02-05T10:13:08.135Z,8.19
2019-02-05T10:15:38.709Z,8.38
2019-02-05T10:18:10.654Z,8.43
2019-02-05T10:20:40.231Z,8.64
2019-02-05T10:23:10.154Z,8.73
2019-02-05T10:25:49.208Z,8.87
2019-02-05T10:28:18.648Z,8.98
2019-02-05T10:30:48.128Z,9.13
2019-02-05T10:33:17.545Z,9.29
2019-02-05T10:35:46.990Z,9.45
2019-02-05T10:38:16.837Z,9.53
2019-02-05T10:40:46.283Z,9.64
2019-02-05T10:43:15.731Z,9.63
2019-02-05T10:45:45.590Z,9.60
2019-02-05T10:48:15.022Z,9.79
2019-02-05T10:50:44.458Z,10.00
2019-02-05T10:53:13.990Z,10.25
2019-02-05T10:55:43.461Z,10.51
2019-02-05T10:58:12.950Z,11.12
2019-02-05T11:00:42.457Z,11.37
2019-02-05T11:03:12.055Z,11.72
2019-02-05T11:05:41.429Z,12.10
2019-02-05T11:08:10.448Z,12.80
2019-02-05T11:10:40.164Z,13.28
2019-02-05T11:13:09.635Z,13.72
2019-02-05T11:15:39.056Z,13.98
2019-02-05T11:18:10.953Z,14.05
2019-02-05T11:20:40.450Z,14.22
2019-02-05T11:23:09.905Z,14.45
2019-02-05T11:25:42.518Z,14.61
2019-02-05T11:28:12.101Z,15.07
2019-02-05T11:30:43.857Z,15.14
2019-02-05T11:33:13.806Z,15.42
2019-02-05T11:35:43.522Z,15.54
2019-02-05T11:38:13.514Z,16.01
2019-02-05T11:40:43.085Z,16.12
2019-02-05T11:43:12.523Z,16.33
2019-02-05T11:45:41.968Z,16.44
2019-02-05T11:48:14.727Z,16.40
2019-02-05T11:50:44.313Z,16.66
2019-02-05T11:53:13.876Z,16.81
2019-02-05T11:55:43.578Z,17.20
2019-02-05T11:58:13.545Z,17.60
2019-02-05T12:01:03.233Z,17.68
2019-02-05T12:03:32.714Z,17.71
2019-02-05T12:06:02.209Z,17.88
2019-02-05T12:08:31.626Z,17.67
2019-02-05T12:11:01.023Z,18.07
2019-02-05T12:13:30.433Z,18.07
2019-02-05T12:15:59.950Z,18.12
2019-02-05T12:18:29.471Z,18.04
2019-02-05T12:20:58.876Z,17.97
2019-02-05T12:23:28.591Z,17.87
2019-02-05T12:25:58.014Z,18.24
2019-02-05T12:28:27.423Z,18.40
2019-02-05T12:30:56.926Z,18.61
2019-02-05T12:33:26.778Z,18.56
2019-02-05T12:35:56.167Z,18.94
2019-02-05T12:38:25.554Z,18.91
2019-02-05T12:40:56.772Z,18.89
2019-02-05T12:43:26.157Z,19.06
2019-02-05T12:45:55.992Z,19.09
2019-02-05T12:48:25.792Z,18.83
2019-02-05T12:50:55.340Z,19.14
2019-02-05T12:53:24.797Z,19.46
2019-02-05T12:55:55.255Z,19.36
2019-02-05T12:58:24.684Z,19.96
2019-02-05T13:00:59.733Z,19.70
2019-02-05T13:03:26.177Z,19.25
2019-02-05T13:05:55.567Z,19.33
2019-02-05T13:08:24.910Z,19.25
2019-02-05T13:11:21.029Z,19.17
2019-02-05T13:13:50.632Z,18.82
2019-02-05T13:16:20.001Z,18.33
2019-02-05T13:18:51.875Z,17.93
2019-02-05T13:21:20.510Z,17.63
2019-02-05T13:23:49.870Z,16.56
2019-02-05T13:26:19.841Z,16.09
2019-02-05T13:28:49.312Z,15.91
2019-02-05T13:31:21.112Z,15.62
2019-02-05T13:33:50.686Z,15.92
2019-02-05T13:36:22.578Z,15.46
2019-02-05T13:38:51.145Z,15.46
2019-02-05T13:41:20.907Z,15.39
2019-02-05T13:43:50.275Z,15.65
2019-02-05T13:46:19.621Z,16.11
2019-02-05T13:48:49.015Z,16.19
2019-02-05T13:51:19.254Z,16.53
2019-02-05T13:53:48.614Z,16.56
2019-02-05T13:56:18.280Z,16.41
2019-02-05T13:58:47.715Z,16.56
2019-02-05T14:01:19.993Z,16.38
2019-02-05T14:03:48.285Z,16.23
2019-02-05T14:06:17.715Z,16.17
2019-02-05T14:08:47.109Z,16.17
2019-02-05T14:11:19.742Z,15.94
2019-02-05T14:13:49.163Z,16.02
2019-02-05T14:16:18.591Z,15.93
2019-02-05T14:18:54.997Z,15.12
2019-02-05T14:21:19.310Z,15.00
2019-02-05T14:23:48.902Z,14.20
2019-02-05T14:26:18.310Z,13.83
2019-02-05T14:28:48.254Z,13.34
2019-02-05T14:31:17.667Z,13.16
2019-02-05T14:33:47.444Z,12.83
2019-02-05T14:36:16.792Z,12.75
2019-02-05T14:38:46.679Z,12.67
2019-02-05T14:41:16.096Z,12.31
2019-02-05T14:43:46.109Z,11.95
2019-02-05T14:46:15.568Z,11.71
2019-02-05T14:48:45.312Z,11.35
2019-02-05T14:51:14.739Z,11.22
2019-02-05T14:53:44.272Z,11.16
2019-02-05T14:56:13.761Z,11.03
2019-02-05T14:58:43.140Z,10.88
2019-02-05T15:01:12.603Z,10.70
2019-02-05T15:03:42.029Z,10.61
2019-02-05T15:06:11.420Z,10.44
2019-02-05T15:08:41.077Z,10.10
2019-02-05T15:11:13.655Z,9.75
2019-02-05T15:13:43.169Z,9.72
2019-02-05T15:16:12.585Z,9.70
2019-02-05T15:18:44.936Z,9.71
2019-02-05T15:21:13.207Z,9.68
2019-02-05T15:23:42.637Z,9.63
2019-02-05T15:26:12.030Z,9.24
2019-02-05T15:28:41.486Z,8.98
2019-02-05T15:31:10.919Z,8.98
2019-02-05T15:34:14.672Z,8.90
2019-02-05T15:36:46.642Z,8.70
2019-02-05T15:39:16.506Z,8.52
2019-02-05T15:41:45.880Z,8.45
2019-02-05T15:44:15.530Z,8.45
2019-02-05T15:46:44.902Z,8.35
2019-02-05T15:49:14.365Z,8.20
2019-02-05T15:51:43.793Z,8.23
2019-02-05T15:54:13.184Z,8.01
2019-02-05T15:56:42.538Z,7.95
2019-02-05T15:59:12.106Z,7.89
2019-02-05T16:01:41.505Z,7.81
2019-02-05T16:04:10.951Z,7.75
2019-02-05T16:06:40.337Z,7.73
2019-02-05T16:09:11.587Z,7.54
2019-02-05T16:11:40.955Z,7.50
2019-02-05T16:14:10.517Z,7.57
2019-02-05T16:16:39.877Z,7.48
2019-02-05T16:19:09.270Z,7.47
2019-02-05T16:21:38.679Z,7.40
2019-02-05T16:24:08.093Z,7.34
2019-02-05T16:26:37.508Z,7.30
2019-02-05T16:29:07.325Z,7.34
2019-02-05T16:31:36.711Z,7.15
2019-02-05T16:34:07.030Z,7.14
2019-02-05T16:36:36.370Z,7.25
2019-02-05T16:39:10.624Z,7.21
2019-02-05T16:41:40.074Z,7.18
2019-02-05T16:44:09.663Z,7.18
2019-02-05T16:46:39.140Z,7.15
2019-02-05T16:49:08.721Z,7.04
2019-02-05T16:51:38.250Z,7.07
2019-02-05T16:54:07.791Z,7.06
2019-02-05T16:56:37.332Z,7.09
2019-02-05T16:59:06.996Z,7.05
2019-02-05T17:01:36.468Z,7.08
2019-02-05T17:04:05.908Z,7.07
2019-02-05T17:06:35.308Z,7.03
2019-02-05T17:09:10.194Z,7.10
2019-02-05T17:11:39.829Z,7.08
2019-02-05T17:14:09.196Z,7.12
2019-02-05T17:16:38.685Z,7.15
2019-02-05T17:19:08.049Z,7.13
2019-02-05T17:21:37.485Z,7.11
2019-02-05T17:24:07.021Z,7.08
2019-02-05T17:26:36.608Z,7.08
2019-02-05T17:29:06.072Z,7.00
2019-02-05T17:31:35.451Z,6.85
2019-02-05T17:34:04.954Z,6.85
2019-02-05T17:36:34.416Z,6.67
2019-02-05T17:39:05.193Z,6.73
2019-02-05T17:41:34.699Z,6.71
2019-02-05T17:44:04.231Z,6.74
2019-02-05T17:46:33.679Z,6.73
2019-02-05T17:49:03.098Z,6.69
2019-02-05T17:51:32.522Z,6.55
2019-02-05T17:54:01.968Z,6.68
2019-02-05T17:56:31.352Z,6.53
2019-02-05T17:59:00.747Z,6.51
2019-02-05T18:01:30.104Z,6.53
2019-02-05T18:03:59.551Z,6.59
2019-02-05T18:06:28.932Z,6.64
2019-02-05T18:08:58.369Z,6.68
2019-02-05T18:11:27.738Z,6.61
2019-02-05T18:13:57.459Z,6.63
2019-02-05T18:16:26.875Z,6.73
2019-02-05T18:18:56.494Z,6.76
2019-02-05T18:21:25.845Z,6.76
2019-02-05T18:23:55.233Z,6.82
2019-02-05T18:26:24.582Z,6.78
2019-02-05T18:28:53.968Z,6.82
2019-02-05T18:31:23.585Z,6.81
2019-02-05T18:33:53.917Z,6.88
2019-02-05T18:36:23.344Z,6.89
2019-02-05T18:38:53.024Z,6.86
2019-02-05T18:41:22.396Z,6.83
2019-02-05T18:43:51.807Z,6.92
2019-02-05T18:46:21.223Z,6.92
2019-02-05T18:48:50.640Z,6.85
2019-02-05T18:51:20.056Z,6.92
2019-02-05T18:53:49.468Z,6.84
2019-02-05T18:56:18.907Z,6.78
2019-02-05T18:58:48.317Z,6.73
2019-02-05T19:01:17.789Z,6.68
2019-02-05T19:03:47.167Z,6.65
2019-02-05T19:06:16.567Z,6.59
2019-02-05T19:08:45.942Z,6.53
2019-02-05T19:11:15.398Z,6.54
2019-02-05T19:13:44.841Z,6.42
2019-02-05T19:16:14.264Z,6.52
2019-02-05T19:18:43.732Z,6.60
2019-02-05T19:21:13.105Z,6.53
2019-02-05T19:23:42.625Z,6.60
2019-02-05T19:26:20.403Z,6.52
2019-02-05T19:28:50.672Z,6.58
2019-02-05T19:31:26.059Z,6.51
2019-02-05T19:33:55.561Z,6.44
2019-02-05T19:36:25.524Z,6.50
2019-02-05T19:38:55.161Z,6.63
2019-02-05T19:41:24.571Z,6.54
2019-02-05T19:43:54.085Z,6.61
2019-02-05T19:46:41.298Z,6.65
2019-02-05T19:49:23.044Z,6.63
2019-02-05T19:51:52.483Z,6.49
2019-02-05T19:54:23.738Z,6.62
2019-02-05T19:56:54.169Z,6.48
2019-02-05T19:59:24.026Z,6.55
2019-02-05T20:01:54.439Z,6.55
2019-02-05T20:04:24.105Z,6.65
2019-02-05T20:06:53.467Z,6.73
2019-02-05T20:09:22.879Z,6.72
2019-02-05T20:11:52.248Z,6.66
2019-02-05T20:14:21.641Z,6.69
2019-02-05T20:16:50.995Z,6.71
2019-02-05T20:19:20.874Z,6.70
2019-02-05T20:21:50.363Z,6.65
2019-02-05T20:24:21.078Z,6.69
2019-02-05T20:26:50.510Z,6.74
2019-02-05T20:29:19.894Z,6.79
2019-02-05T20:31:49.326Z,6.71
2019-02-05T20:34:18.692Z,6.76
2019-02-05T20:36:48.119Z,6.86
2019-02-05T20:39:18.864Z,6.90
2019-02-05T20:41:48.574Z,6.90
2019-02-05T20:44:17.977Z,6.85
2019-02-05T20:46:47.403Z,6.80
2019-02-05T20:49:16.805Z,6.81
2019-02-05T20:51:46.590Z,6.89
2019-02-05T20:54:18.662Z,6.93
2019-02-05T20:56:48.882Z,6.90
2019-02-05T20:59:18.334Z,6.89
2019-02-05T21:01:47.687Z,6.95
2019-02-05T21:04:17.040Z,7.06
2019-02-05T21:06:46.802Z,7.01
2019-02-05T21:09:20.868Z,6.99
2019-02-05T21:11:50.285Z,7.00
2019-02-05T21:14:19.986Z,6.92
2019-02-05T21:16:49.476Z,6.91
2019-02-05T21:19:18.982Z,6.90
2019-02-05T21:21:48.760Z,6.91
2019-02-05T21:24:18.191Z,6.90
2019-02-05T21:26:47.542Z,6.85
2019-02-05T21:29:16.933Z,6.87
2019-02-05T21:31:46.304Z,6.98
2019-02-05T21:34:16.322Z,7.02
2019-02-05T21:36:48.081Z,7.01
2019-02-05T21:39:17.442Z,7.03
2019-02-05T21:41:46.894Z,6.99
2019-02-05T21:44:16.297Z,6.99
2019-02-05T21:46:45.627Z,6.92
2019-02-05T21:49:15.010Z,6.96
2019-02-05T21:51:44.388Z,6.91
2019-02-05T21:54:13.833Z,6.93
2019-02-05T21:56:43.270Z,6.99
2019-02-05T21:59:12.689Z,7.06
2019-02-05T22:01:42.249Z,6.96
2019-02-05T22:04:11.723Z,7.07
2019-02-05T22:06:41.189Z,7.09
2019-02-05T22:09:12.857Z,7.04
2019-02-05T22:11:42.323Z,6.99
2019-02-05T22:14:11.724Z,6.97
2019-02-05T22:16:41.326Z,7.09
2019-02-05T22:19:11.179Z,7.08
2019-02-05T22:21:40.772Z,7.08
2019-02-05T22:24:10.157Z,7.03
2019-02-05T22:26:40.555Z,7.00
2019-02-05T22:29:10.266Z,6.98
2019-02-05T22:31:40.536Z,7.00
2019-02-05T22:34:10.144Z,6.86
2019-02-05T22:36:39.488Z,7.01
2019-02-05T22:39:10.337Z,7.06
2019-02-05T22:41:39.710Z,7.08
2019-02-05T22:44:09.142Z,7.07
2019-02-05T22:46:38.977Z,7.01
2019-02-05T22:49:08.325Z,7.07
2019-02-05T22:51:37.951Z,6.99
2019-02-05T22:54:07.502Z,6.97
2019-02-05T22:56:36.913Z,6.94
2019-02-05T22:59:06.674Z,6.88
2019-02-05T23:01:56.510Z,6.87
2019-02-05T23:04:55.590Z,6.88
2019-02-05T23:07:26.975Z,6.85
2019-02-05T23:10:21.506Z,6.84
2019-02-05T23:13:11.263Z,6.80
2019-02-05T23:15:46.179Z,6.70
2019-02-05T23:18:15.756Z,6.69
2019-02-05T23:20:45.296Z,6.72
2019-02-05T23:23:14.850Z,6.69
2019-02-05T23:25:44.283Z,6.65
2019-02-05T23:28:13.971Z,6.56
2019-02-05T23:30:44.133Z,6.44
2019-02-05T23:33:13.825Z,6.52
2019-02-05T23:35:43.235Z,6.48
2019-02-05T23:38:12.622Z,6.46
2019-02-05T23:40:42.057Z,6.43
2019-02-05T23:43:11.434Z,6.34
2019-02-05T23:45:40.965Z,6.36
2019-02-05T23:48:10.435Z,6.38
2019-02-05T23:50:39.852Z,6.36
2019-02-05T23:53:09.274Z,6.30
2019-02-05T23:55:38.673Z,6.31
2019-02-05T23:58:08.080Z,6.29
